Time;durP1;ratioP1;P1;durP2;ratioP2;P2;SDS_P1;SDS_P2;PMS_P1;PMS_P2;Temp;Humidity;BMP_temperature;BMP_pressure;BME280_temperature;BME280_humidity;BME280_pressure;Samples;Min_cycle;Max_cycle;Signal;HPM_P1;HPM_P2
2022/09/26 00:01:11;;;;;;;5.82;2.90;;;12.00;98.30;;;;;;5054873;28;20032;-54
2022/09/26 00:03:37;;;;;;;5.22;2.33;;;12.10;98.30;;;;;;5055011;28;20032;-55
2022/09/26 00:06:07;;;;;;;6.95;2.40;;;12.00;98.40;;;;;;5054505;28;20392;-56
2022/09/26 00:08:33;;;;;;;;;;;12.00;98.40;;;;;;5053939;28;20021;-54
2022/09/26 00:11:01;;;;;;;4.70;2.40;;;12.00;98.40;;;;;;5053200;28;19936;-56
2022/09/26 00:13:28;;;;;;;6.47;2.70;;;12.00;98.70;;;;;;5054665;28;20033;-56
2022/09/26 00:15:54;;;;;;;4.30;2.60;;;12.00;98.70;;;;;;5053321;28;20025;-55
2022/09/26 00:18:20;;;;;;;5.63;2.80;;;12.10;98.70;;;;;;5054314;28;20025;-55
2022/09/26 00:20:46;;;;;;;4.03;2.65;;;12.10;98.70;;;;;;5052235;28;20032;-56
2022/09/26 00:23:12;;;;;;;3.47;2.63;;;12.10;98.70;;;;;;5053009;28;20013;-54
2022/09/26 00:25:48;;;;;;;5.35;2.30;;;12.10;98.70;;;;;;5054493;28;20047;-56
2022/09/26 00:28:14;;;;;;;3.60;2.50;;;12.10;98.70;;;;;;5042372;28;20029;-56
2022/09/26 00:30:40;;;;;;;4.50;2.72;;;12.10;98.70;;;;;;5053516;28;20115;-55
2022/09/26 00:33:05;;;;;;;3.72;2.70;;;12.10;98.80;;;;;;5053056;28;20079;-55
2022/09/26 00:35:31;;;;;;;3.95;3.28;;;12.10;98.90;;;;;;5052433;28;20033;-56
2022/09/26 00:37:56;;;;;;;4.25;2.55;;;12.10;99.00;;;;;;5053003;28;20074;-56
2022/09/26 00:40:26;;;;;;;5.25;3.08;;;12.10;99.00;;;;;;5067669;28;20029;-56
2022/09/26 00:42:53;;;;;;;3.67;2.80;;;12.10;99.00;;;;;;5054374;28;20111;-56
2022/09/26 00:45:18;;;;;;;3.75;2.60;;;12.10;99.10;;;;;;5053973;28;20042;-56
2022/09/26 00:47:58;;;;;;;4.90;2.90;;;12.10;99.20;;;;;;5054316;28;20397;-56
2022/09/26 00:50:29;;;;;;;6.40;3.38;;;12.10;99.30;;;;;;5058223;28;20032;-56
2022/09/26 00:53:00;;;;;;;5.07;2.97;;;12.00;99.50;;;;;;5052477;28;20037;-56
2022/09/26 00:55:29;;;;;;;4.38;3.65;;;12.00;99.90;;;;;;5053479;28;20055;-56
2022/09/26 00:58:13;;;;;;;6.88;3.22;;;12.00;99.70;;;;;;5052860;28;20021;-56
2022/09/26 01:00:40;;;;;;;3.45;2.80;;;12.00;99.70;;;;;;5069498;28;20143;-56
2022/09/26 01:03:06;;;;;;;4.88;3.08;;;12.00;99.80;;;;;;5053475;28;20496;-56
2022/09/26 01:05:33;;;;;;;4.57;3.00;;;12.00;99.80;;;;;;5053815;28;20035;-56
2022/09/26 01:08:00;;;;;;;4.45;2.83;;;12.10;99.80;;;;;;5053670;28;20067;-56
2022/09/26 01:10:28;;;;;;;6.68;3.42;;;12.10;99.70;;;;;;5053339;28;20037;-56
2022/09/26 01:12:56;;;;;;;4.88;3.53;;;12.10;99.70;;;;;;5053583;28;20025;-55
2022/09/26 01:15:21;;;;;;;4.20;3.30;;;12.10;99.80;;;;;;5052921;28;20029;-56
2022/09/26 01:17:47;;;;;;;5.15;3.60;;;12.00;99.80;;;;;;5052327;28;20526;-55
2022/09/26 01:20:19;;;;;;;5.45;3.05;;;12.10;99.90;;;;;;5052971;28;20030;-55
2022/09/26 01:23:12;;;;;;;4.15;3.25;;;12.00;99.70;;;;;;5053472;28;20059;-55
2022/09/26 01:25:52;;;;;;;5.10;3.40;;;12.00;99.70;;;;;;5053286;28;20036;-55
2022/09/26 01:28:42;;;;;;;6.00;3.22;;;12.00;99.60;;;;;;5052948;28;20029;-55
2022/09/26 01:31:36;;;;;;;6.90;3.28;;;12.10;99.60;;;;;;5053043;28;20017;-55
2022/09/26 01:34:14;;;;;;;5.68;3.28;;;12.00;99.60;;;;;;5062501;28;20039;-56
2022/09/26 01:36:55;;;;;;;7.70;3.35;;;12.00;99.60;;;;;;5051645;28;20048;-55
2022/09/26 01:39:29;;;;;;;6.75;3.22;;;12.10;99.60;;;;;;5045784;28;20463;-56
2022/09/26 01:42:04;;;;;;;8.13;3.40;;;12.00;99.60;;;;;;5037333;28;20124;-56
2022/09/26 01:44:42;;;;;;;8.40;4.03;;;12.00;99.60;;;;;;5050224;28;20075;-56
2022/09/26 01:47:28;;;;;;;6.93;3.35;;;12.00;99.60;;;;;;5040282;28;20023;-55
2022/09/26 01:50:22;;;;;;;5.68;3.08;;;12.00;99.50;;;;;;5048284;28;20034;-56
2022/09/26 01:53:00;;;;;;;7.38;3.60;;;12.00;99.40;;;;;;5051310;28;20465;-56
2022/09/26 01:55:47;;;;;;;4.40;2.95;;;12.00;99.40;;;;;;5031714;28;20053;-55
2022/09/26 01:58:24;;;;;;;6.90;3.60;;;12.00;99.30;;;;;;5052492;28;20017;-55
2022/09/26 02:00:51;;;;;;;6.75;2.92;;;12.00;99.30;;;;;;5052940;28;20029;-56
2022/09/26 02:03:20;;;;;;;5.13;3.15;;;12.00;99.10;;;;;;5052529;28;20037;-56
2022/09/26 02:05:49;;;;;;;;;;;12.00;98.90;;;;;;5051149;28;20021;-54
2022/09/26 02:08:29;;;;;;;7.97;3.50;;;12.00;98.80;;;;;;5049040;28;19912;-55
2022/09/26 02:11:01;;;;;;;;;;;12.00;98.90;;;;;;5052965;28;20021;-56
2022/09/26 02:13:34;;;;;;;9.85;3.85;;;12.00;98.70;;;;;;5046819;28;19951;-56
2022/09/26 02:16:11;;;;;;;8.02;3.25;;;12.00;98.70;;;;;;5052221;28;20059;-54
2022/09/26 02:18:46;;;;;;;4.68;2.78;;;12.10;98.50;;;;;;5046704;28;20045;-54
2022/09/26 02:21:16;;;;;;;5.25;2.63;;;12.00;98.50;;;;;;5052394;28;20121;-56
2022/09/26 02:23:42;;;;;;;8.23;3.33;;;12.00;98.50;;;;;;5051286;28;20533;-56
2022/09/26 02:26:08;;;;;;;6.82;2.95;;;12.00;98.40;;;;;;5052324;28;20103;-56
2022/09/26 02:28:34;;;;;;;6.38;3.55;;;12.00;98.30;;;;;;5045837;28;20017;-55
2022/09/26 02:31:03;;;;;;;4.03;2.65;;;12.00;98.20;;;;;;5051912;28;20025;-56
2022/09/26 02:33:29;;;;;;;3.47;2.58;;;12.00;98.20;;;;;;5052421;28;20485;-56
2022/09/26 02:35:56;;;;;;;7.45;3.10;;;12.00;98.20;;;;;;5052165;28;20025;-55
2022/09/26 02:38:23;;;;;;;5.32;2.90;;;12.00;98.20;;;;;;5052055;28;20091;-56
2022/09/26 02:41:07;;;;;;;6.30;2.78;;;12.10;98.10;;;;;;5050763;28;20120;-55
2022/09/26 02:44:14;;;;;;;6.88;2.75;;;12.00;98.00;;;;;;5045054;28;20036;-56
2022/09/26 02:47:05;;;;;;;3.92;2.47;;;12.10;97.90;;;;;;5031832;28;20033;-55
2022/09/26 02:49:46;;;;;;;5.00;2.33;;;12.10;97.90;;;;;;5050409;28;20098;-56
2022/09/26 02:52:44;;;;;;;3.08;2.47;;;12.10;97.90;;;;;;5049677;28;20394;-56
2022/09/26 02:55:38;;;;;;;4.85;3.08;;;12.10;97.80;;;;;;5052603;28;20052;-54
2022/09/26 02:58:26;;;;;;;6.75;2.42;;;12.10;97.60;;;;;;5060840;28;20358;-54
2022/09/26 03:01:09;;;;;;;7.50;2.58;;;12.10;97.60;;;;;;5045098;28;20022;-56
2022/09/26 03:03:41;;;;;;;4.50;2.35;;;12.10;97.50;;;;;;5048067;28;20014;-55
2022/09/26 03:06:12;;;;;;;4.53;2.28;;;12.10;97.50;;;;;;5050375;28;20033;-55
2022/09/26 03:08:42;;;;;;;4.68;2.55;;;12.10;97.50;;;;;;5049275;28;20423;-54
2022/09/26 03:11:11;;;;;;;3.83;2.20;;;12.10;97.40;;;;;;5040439;28;20082;-56
2022/09/26 03:13:39;;;;;;;4.50;2.30;;;12.10;97.30;;;;;;5050459;28;20396;-55
2022/09/26 03:16:05;;;;;;;5.35;2.20;;;12.10;97.40;;;;;;5050885;28;20028;-53
2022/09/26 03:18:37;;;;;;;4.78;2.08;;;12.10;97.60;;;;;;5050030;28;20028;-55
2022/09/26 03:21:03;;;;;;;4.28;2.33;;;12.10;97.40;;;;;;5070337;28;20037;-56
2022/09/26 03:23:29;;;;;;;5.20;2.42;;;12.10;97.50;;;;;;5055181;28;20013;-55
2022/09/26 03:26:00;;;;;;;4.25;1.85;;;12.10;97.50;;;;;;5053168;28;20025;-55
2022/09/26 03:28:27;;;;;;;3.08;2.10;;;12.10;97.50;;;;;;5044531;28;20032;-55
2022/09/26 03:30:53;;;;;;;4.63;2.40;;;12.00;97.50;;;;;;5055323;28;20489;-56
2022/09/26 03:33:18;;;;;;;5.82;1.52;;;12.00;97.60;;;;;;5051009;28;20137;-56
2022/09/26 03:35:44;;;;;;;4.30;1.88;;;12.00;97.70;;;;;;5052372;28;20032;-56
2022/09/26 03:38:10;;;;;;;4.00;2.10;;;12.00;97.70;;;;;;5054036;28;20028;-56
2022/09/26 03:40:35;;;;;;;6.47;2.20;;;12.00;97.70;;;;;;5054033;28;20041;-56
2022/09/26 03:43:01;;;;;;;4.50;2.13;;;12.00;97.70;;;;;;5055434;28;20025;-56
2022/09/26 03:45:27;;;;;;;5.15;2.28;;;11.90;97.70;;;;;;5054002;28;20476;-57
2022/09/26 03:47:56;;;;;;;4.15;1.90;;;11.90;97.80;;;;;;5053756;28;20067;-55
2022/09/26 03:50:22;;;;;;;5.28;1.70;;;11.90;97.80;;;;;;5053547;28;20021;-55
2022/09/26 03:52:49;;;;;;;4.25;1.60;;;11.90;97.90;;;;;;5054016;28;20471;-55
2022/09/26 03:55:15;;;;;;;3.75;1.63;;;11.90;97.90;;;;;;5053792;28;20104;-56
2022/09/26 03:57:40;;;;;;;6.40;1.83;;;11.90;97.90;;;;;;5053878;28;20029;-55
2022/09/26 04:00:06;;;;;;;6.45;2.00;;;11.80;97.90;;;;;;5050261;28;20033;-55
2022/09/26 04:02:33;;;;;;;6.05;2.30;;;11.80;97.90;;;;;;5044668;28;20049;-54
2022/09/26 04:04:59;;;;;;;5.75;1.77;;;11.80;97.90;;;;;;5054023;28;20071;-56
2022/09/26 04:07:25;;;;;;;6.07;1.75;;;11.70;98.00;;;;;;5053667;28;20025;-56
2022/09/26 04:09:51;;;;;;;5.38;1.73;;;11.70;98.10;;;;;;5052456;28;20496;-55
2022/09/26 04:12:16;;;;;;;4.40;1.55;;;11.70;98.20;;;;;;5053775;28;20490;-55
2022/09/26 04:14:44;;;;;;;3.30;1.70;;;11.60;98.10;;;;;;5051043;28;20053;-55
2022/09/26 04:17:11;;;;;;;7.38;1.85;;;11.60;98.20;;;;;;5054759;28;20024;-56
2022/09/26 04:19:37;;;;;;;4.30;1.70;;;11.60;98.20;;;;;;5052538;28;20036;-56
2022/09/26 04:22:03;;;;;;;5.45;1.80;;;11.60;98.30;;;;;;5053244;28;20021;-56
2022/09/26 04:24:29;;;;;;;5.50;1.83;;;11.60;98.30;;;;;;5052548;28;20029;-56
2022/09/26 04:26:54;;;;;;;5.45;1.95;;;11.50;98.30;;;;;;5053508;28;20017;-54
2022/09/26 04:29:20;;;;;;;5.35;1.40;;;11.50;98.20;;;;;;5052947;28;20013;-54
2022/09/26 04:31:45;;;;;;;6.88;1.45;;;11.50;98.30;;;;;;5052812;28;20122;-56
2022/09/26 04:34:11;;;;;;;5.00;1.70;;;11.50;98.20;;;;;;5053669;28;20029;-56
2022/09/26 04:36:37;;;;;;;4.75;1.80;;;11.50;98.30;;;;;;5054423;28;20021;-56
2022/09/26 04:39:03;;;;;;;5.15;1.88;;;11.50;98.30;;;;;;5053903;28;20021;-56
2022/09/26 04:41:30;;;;;;;9.00;2.53;;;11.50;98.20;;;;;;5054261;28;20059;-56
2022/09/26 04:43:57;;;;;;;5.05;1.30;;;11.50;98.10;;;;;;5053919;28;20024;-55
2022/09/26 04:46:25;;;;;;;6.53;2.10;;;11.50;98.10;;;;;;5052997;28;20028;-56
2022/09/26 04:48:51;;;;;;;5.97;2.47;;;11.50;98.10;;;;;;5052671;28;20055;-56
2022/09/26 04:51:18;;;;;;;6.13;1.73;;;11.50;98.10;;;;;;5051842;28;20032;-55
2022/09/26 04:53:44;;;;;;;6.93;1.98;;;11.50;98.10;;;;;;5052592;28;20021;-54
2022/09/26 04:56:12;;;;;;;5.97;1.83;;;11.50;98.00;;;;;;5052024;28;20465;-55
2022/09/26 04:58:40;;;;;;;4.53;2.03;;;11.50;97.90;;;;;;5053442;28;20104;-54
2022/09/26 05:01:08;;;;;;;5.65;2.13;;;11.50;97.90;;;;;;5052516;28;20017;-55
2022/09/26 05:03:35;;;;;;;6.03;2.22;;;11.50;98.00;;;;;;5053339;28;20473;-54
2022/09/26 05:06:04;;;;;;;2.88;1.90;;;11.50;98.10;;;;;;5049657;28;20452;-55
2022/09/26 05:08:30;;;;;;;4.72;1.95;;;11.40;98.30;;;;;;5052249;28;20020;-55
2022/09/26 05:10:56;;;;;;;6.85;2.00;;;11.40;98.30;;;;;;5051695;28;20029;-55
2022/09/26 05:13:23;;;;;;;4.82;1.92;;;11.40;98.80;;;;;;5050624;28;20037;-55
2022/09/26 05:15:52;;;;;;;4.60;2.20;;;11.30;99.00;;;;;;5052047;28;20029;-55
2022/09/26 05:18:18;;;;;;;;;;;11.30;99.40;;;;;;5050483;28;20017;-53
2022/09/26 05:20:47;;;;;;;5.15;2.40;;;11.20;99.60;;;;;;5052199;28;19912;-54
2022/09/26 05:26:32;;;;;;;3.95;2.30;;;11.10;99.90;;;;;;5051991;28;20074;-55
2022/09/26 05:28:54;;;;;;;6.97;2.90;;;11.10;99.90;;;;;;5047324;28;20068;-54
2022/09/26 05:31:22;;;;;;;8.43;2.75;;;11.10;99.90;;;;;;5049188;28;20033;-56
2022/09/26 05:33:50;;;;;;;5.68;2.65;;;11.10;99.90;;;;;;5056543;28;20075;-55
2022/09/26 05:36:16;;;;;;;7.80;2.67;;;11.10;99.90;;;;;;5045780;28;20087;-55
2022/09/26 05:38:42;;;;;;;5.60;2.83;;;11.00;99.90;;;;;;5049045;28;20021;-54
2022/09/26 05:41:07;;;;;;;5.80;2.80;;;11.10;99.90;;;;;;5046056;28;20041;-55
2022/09/26 05:43:33;;;;;;;6.85;2.70;;;11.10;99.90;;;;;;5049640;28;20028;-54
2022/09/26 05:46:02;;;;;;;4.45;2.50;;;11.10;99.90;;;;;;5045553;28;20465;-54
2022/09/26 05:48:29;;;;;;;11.23;3.43;;;11.10;99.90;;;;;;5062793;28;20103;-54
2022/09/26 05:50:55;;;;;;;6.00;2.90;;;11.10;99.90;;;;;;5051483;28;20483;-55
2022/09/26 05:53:21;;;;;;;6.55;3.05;;;11.10;99.90;;;;;;5046640;28;20060;-55
2022/09/26 05:55:50;;;;;;;5.75;2.80;;;11.10;99.90;;;;;;5046718;28;20392;-54
2022/09/26 05:58:19;;;;;;;3.60;2.33;;;11.10;99.90;;;;;;5051434;28;20075;-56
2022/09/26 06:00:49;;;;;;;3.97;2.35;;;11.10;99.90;;;;;;5045771;28;20039;-55
2022/09/26 06:03:15;;;;;;;;;;;11.10;99.90;;;;;;5051274;28;20017;-54
2022/09/26 06:05:41;;;;;;;9.07;2.50;;;11.10;99.90;;;;;;5051065;28;20249;-56
2022/09/26 06:08:08;;;;;;;6.75;2.47;;;11.10;99.90;;;;;;5051081;28;20029;-54
2022/09/26 06:10:34;;;;;;;5.13;2.30;;;11.10;99.90;;;;;;5044415;28;20033;-55
2022/09/26 06:13:03;;;;;;;5.38;2.40;;;11.10;99.90;;;;;;5045333;28;20492;-52
2022/09/26 06:15:29;;;;;;;7.53;2.28;;;11.10;99.90;;;;;;5041593;28;20035;-56
2022/09/26 06:17:59;;;;;;;6.75;2.63;;;11.10;99.90;;;;;;5047892;28;20496;-55
2022/09/26 06:20:26;;;;;;;5.40;2.45;;;11.10;99.90;;;;;;5050258;28;20021;-56
2022/09/26 06:22:53;;;;;;;5.55;2.90;;;11.10;99.90;;;;;;5050665;28;20100;-55
2022/09/26 06:25:19;;;;;;;9.23;3.00;;;11.10;99.90;;;;;;5047288;28;20021;-56
2022/09/26 06:27:45;;;;;;;7.93;3.58;;;11.10;99.90;;;;;;5043569;28;20028;-54
2022/09/26 06:30:10;;;;;;;4.45;2.42;;;11.10;99.90;;;;;;5048250;28;20166;-55
2022/09/26 06:32:38;;;;;;;10.13;3.30;;;11.10;99.90;;;;;;5049211;28;20025;-56
2022/09/26 06:35:05;;;;;;;4.80;2.55;;;11.10;99.90;;;;;;5048104;28;20128;-56
2022/09/26 06:37:30;;;;;;;6.55;2.65;;;11.10;99.90;;;;;;5050523;28;20070;-55
2022/09/26 06:39:56;;;;;;;8.13;2.92;;;11.20;99.90;;;;;;5047918;28;20045;-56
2022/09/26 06:42:21;;;;;;;4.97;2.53;;;11.20;99.90;;;;;;5047570;28;20067;-55
2022/09/26 06:44:47;;;;;;;6.80;3.17;;;11.20;99.90;;;;;;5049514;28;20397;-55
2022/09/26 06:47:13;;;;;;;8.05;2.47;;;11.20;99.90;;;;;;5046547;28;20071;-55
2022/09/26 06:49:38;;;;;;;11.68;3.30;;;11.30;99.90;;;;;;5048661;28;20029;-55
2022/09/26 06:52:04;;;;;;;5.15;2.53;;;11.30;99.90;;;;;;5050618;28;20033;-55
2022/09/26 06:54:29;;;;;;;8.05;2.92;;;11.30;99.90;;;;;;5045365;28;20389;-56
2022/09/26 06:56:55;;;;;;;6.40;2.70;;;11.40;99.90;;;;;;5054823;28;20380;-56
2022/09/26 06:59:22;;;;;;;7.43;3.13;;;11.40;99.90;;;;;;5044600;28;20051;-56
2022/09/26 07:01:48;;;;;;;5.68;2.90;;;11.40;99.90;;;;;;5053303;28;20029;-55
2022/09/26 07:04:16;;;;;;;8.30;3.17;;;11.30;99.90;;;;;;5039855;28;20050;-55
2022/09/26 07:06:41;;;;;;;4.85;2.83;;;11.40;99.90;;;;;;5054333;28;20021;-56
2022/09/26 07:09:07;;;;;;;6.50;3.13;;;11.40;99.90;;;;;;5054793;28;20303;-56
2022/09/26 07:11:33;;;;;;;6.35;3.03;;;11.40;99.90;;;;;;5054518;28;20017;-55
2022/09/26 07:14:00;;;;;;;7.00;2.75;;;11.40;99.90;;;;;;5053141;28;20035;-55
2022/09/26 07:16:29;;;;;;;7.25;2.58;;;11.40;99.90;;;;;;5054300;28;20083;-53
2022/09/26 07:18:55;;;;;;;9.07;3.30;;;11.40;99.90;;;;;;5052156;28;20028;-56
2022/09/26 07:21:21;;;;;;;5.97;2.78;;;11.40;99.90;;;;;;5053008;28;20029;-54
2022/09/26 07:23:47;;;;;;;6.65;3.25;;;11.50;99.90;;;;;;5053182;28;20031;-55
2022/09/26 07:26:12;;;;;;;5.78;3.22;;;11.50;99.90;;;;;;5055108;28;20029;-55
2022/09/26 07:28:38;;;;;;;6.40;2.70;;;11.50;99.90;;;;;;5054200;28;20032;-56
2022/09/26 07:31:04;;;;;;;5.93;2.65;;;11.50;99.90;;;;;;5054949;28;20124;-56
2022/09/26 07:33:30;;;;;;;5.22;2.25;;;11.60;99.90;;;;;;5054377;28;20061;-55
2022/09/26 07:35:58;;;;;;;7.60;2.67;;;11.50;99.90;;;;;;5054051;28;20017;-56
2022/09/26 07:38:24;;;;;;;5.50;2.50;;;11.60;99.90;;;;;;5055280;28;20495;-56
2022/09/26 07:40:53;;;;;;;7.00;2.50;;;11.60;99.90;;;;;;5050531;28;20068;-54
2022/09/26 07:43:22;;;;;;;5.65;2.35;;;11.60;99.90;;;;;;5052531;28;20016;-54
2022/09/26 07:51:18;;;;;;;8.63;2.67;;;11.70;99.90;;;;;;5053416;28;20511;-54
2022/09/26 07:53:44;;;;;;;5.93;2.20;;;11.70;99.90;;;;;;5053136;28;20025;-56
2022/09/26 07:56:09;;;;;;;9.10;2.63;;;11.80;99.90;;;;;;5055072;28;20025;-55
2022/09/26 07:58:40;;;;;;;4.88;2.17;;;11.80;99.90;;;;;;5054848;28;20021;-56
2022/09/26 08:01:17;;;;;;;7.78;2.20;;;11.80;99.90;;;;;;5054803;28;20013;-55
2022/09/26 08:03:46;;;;;;;4.82;2.03;;;11.80;99.90;;;;;;5055008;28;20071;-56
2022/09/26 08:06:13;;;;;;;;;;;11.90;99.90;;;;;;5053140;28;20082;-56
2022/09/26 08:08:40;;;;;;;4.95;2.65;;;11.90;99.90;;;;;;5063450;28;19912;-55
2022/09/26 08:11:14;;;;;;;7.75;1.98;;;11.90;99.90;;;;;;5052380;28;20037;-55
2022/09/26 08:13:42;;;;;;;9.52;2.78;;;11.90;99.90;;;;;;5053440;28;20539;-54
2022/09/26 08:16:08;;;;;;;4.70;2.30;;;11.90;99.90;;;;;;5051907;28;20025;-56
2022/09/26 08:18:34;;;;;;;5.30;2.10;;;12.00;99.90;;;;;;5052156;28;20051;-56
2022/09/26 08:21:05;;;;;;;7.07;2.20;;;12.00;99.90;;;;;;5046772;28;20060;-56
2022/09/26 08:23:32;;;;;;;7.90;2.35;;;12.00;99.90;;;;;;5053018;28;20021;-55
2022/09/26 08:25:58;;;;;;;6.22;2.35;;;12.00;99.90;;;;;;5046662;28;20060;-55
2022/09/26 08:28:26;;;;;;;5.43;1.85;;;12.00;99.90;;;;;;5050725;28;20698;-55
2022/09/26 08:30:51;;;;;;;4.80;1.85;;;12.10;99.90;;;;;;5046451;28;20021;-56
2022/09/26 08:33:17;;;;;;;4.97;2.10;;;12.10;99.90;;;;;;5054174;28;20107;-55
2022/09/26 08:35:44;;;;;;;5.47;2.30;;;12.10;99.90;;;;;;5046560;28;20107;-56
2022/09/26 08:38:10;;;;;;;5.90;2.42;;;12.20;99.90;;;;;;5052935;28;20473;-55
2022/09/26 08:40:58;;;;;;;6.50;3.13;;;12.20;99.90;;;;;;5049335;28;20050;-56
2022/09/26 08:43:55;;;;;;;3.15;1.80;;;12.20;99.90;;;;;;5046272;28;20048;-55
2022/09/26 08:46:53;;;;;;;5.75;1.92;;;12.20;99.90;;;;;;5039572;28;20017;-56
2022/09/26 08:49:30;;;;;;;5.40;2.55;;;12.20;99.90;;;;;;5041952;28;20024;-55
2022/09/26 08:51:59;;;;;;;5.35;2.00;;;12.20;99.90;;;;;;5053726;28;20029;-56
2022/09/26 08:54:32;;;;;;;7.13;2.40;;;12.20;99.90;;;;;;5053793;28;20017;-56
2022/09/26 08:57:04;;;;;;;6.05;2.45;;;12.20;99.90;;;;;;5045387;28;20087;-56
2022/09/26 08:59:41;;;;;;;7.28;2.35;;;12.30;99.90;;;;;;5046999;28;20013;-56
2022/09/26 09:02:20;;;;;;;6.65;1.90;;;12.30;99.90;;;;;;5047650;28;20021;-54
2022/09/26 09:05:14;;;;;;;9.10;2.40;;;12.30;99.90;;;;;;5052985;28;20025;-56
2022/09/26 09:07:40;;;;;;;4.85;1.88;;;12.40;99.90;;;;;;5033494;28;20439;-55
2022/09/26 09:10:09;;;;;;;7.60;2.33;;;12.40;99.90;;;;;;5050377;28;20067;-56
2022/09/26 09:13:01;;;;;;;3.40;1.75;;;12.40;99.90;;;;;;5052377;28;20121;-55
2022/09/26 09:16:02;;;;;;;4.13;2.20;;;12.40;99.90;;;;;;5053462;28;20036;-56
2022/09/26 09:18:42;;;;;;;5.25;2.25;;;12.40;99.90;;;;;;5052299;28;20021;-56
2022/09/26 09:21:32;;;;;;;4.20;1.85;;;12.40;99.90;;;;;;5046571;28;20021;-56
2022/09/26 09:24:32;;;;;;;6.03;2.38;;;12.40;99.90;;;;;;5053671;28;20049;-55
2022/09/26 09:27:32;;;;;;;7.43;2.70;;;12.30;99.90;;;;;;5064059;28;20021;-56
2022/09/26 09:30:20;;;;;;;7.50;2.80;;;12.30;99.90;;;;;;5019680;28;20497;-55
2022/09/26 09:33:26;;;;;;;8.65;2.45;;;12.30;99.90;;;;;;5033296;28;20071;-55
2022/09/26 09:35:58;;;;;;;6.70;3.03;;;12.20;99.90;;;;;;4991369;28;20089;-56
2022/09/26 09:38:32;;;;;;;6.65;2.45;;;12.20;99.90;;;;;;4991915;28;20034;-54
2022/09/26 09:41:11;;;;;;;5.45;2.65;;;12.20;99.90;;;;;;5011661;28;20056;-55
2022/09/26 09:43:42;;;;;;;6.88;2.65;;;12.10;99.90;;;;;;5051508;28;20032;-54
2022/09/26 09:46:22;;;;;;;7.70;2.78;;;12.10;99.90;;;;;;5057872;28;20033;-57
2022/09/26 09:48:50;;;;;;;5.82;2.90;;;12.00;99.90;;;;;;5051827;28;20056;-54
2022/09/26 09:51:41;;;;;;;8.82;3.55;;;12.10;99.90;;;;;;5044050;28;20126;-55
2022/09/26 09:54:32;;;;;;;9.50;3.50;;;12.10;99.90;;;;;;5045795;28;20040;-53
2022/09/26 09:57:10;;;;;;;7.22;3.15;;;12.10;99.90;;;;;;5046549;28;20032;-55
2022/09/26 09:59:44;;;;;;;6.22;3.58;;;12.10;99.90;;;;;;5032866;28;20100;-55
2022/09/26 10:02:34;;;;;;;7.90;3.38;;;12.10;99.90;;;;;;5033018;28;20096;-54
2022/09/26 10:04:59;;;;;;;8.23;3.35;;;12.00;99.90;;;;;;5034109;28;20564;-54
2022/09/26 10:07:25;;;;;;;9.25;3.63;;;11.90;99.90;;;;;;5052578;28;20092;-56
2022/09/26 10:09:52;;;;;;;7.50;3.47;;;11.90;99.90;;;;;;5052075;28;20029;-55
2022/09/26 10:12:22;;;;;;;9.23;3.25;;;11.80;99.90;;;;;;5052863;28;20028;-56
2022/09/26 10:15:18;;;;;;;8.38;3.42;;;11.80;99.90;;;;;;5052219;28;20028;-54
2022/09/26 10:17:59;;;;;;;7.07;3.60;;;11.90;99.90;;;;;;5051342;28;20028;-54
2022/09/26 10:20:41;;;;;;;7.35;3.33;;;11.80;99.90;;;;;;5047969;28;20022;-54
2022/09/26 10:23:33;;;;;;;7.85;3.00;;;11.90;99.90;;;;;;5052149;28;20013;-55
2022/09/26 10:26:04;;;;;;;7.30;4.10;;;11.90;99.90;;;;;;5051149;28;20055;-55
2022/09/26 10:28:34;;;;;;;12.05;3.65;;;11.90;99.90;;;;;;5052203;28;20099;-55
2022/09/26 10:31:09;;;;;;;5.85;3.67;;;11.90;99.90;;;;;;5046447;28;20049;-56
2022/09/26 10:33:37;;;;;;;9.43;4.00;;;11.90;99.90;;;;;;5044292;28;20031;-54
2022/09/26 10:36:29;;;;;;;7.93;4.18;;;11.90;99.90;;;;;;5050899;28;20116;-55
2022/09/26 10:42:18;;;;;;;6.57;3.45;;;12.00;99.90;;;;;;5035715;28;20447;-55
2022/09/26 10:44:46;;;;;;;9.50;3.90;;;12.00;99.90;;;;;;5067726;28;20028;-55
2022/09/26 10:47:15;;;;;;;9.75;4.13;;;11.90;99.90;;;;;;5053988;28;20137;-55
2022/09/26 10:49:58;;;;;;;8.85;4.20;;;11.90;99.90;;;;;;5052201;28;20092;-53
2022/09/26 10:52:31;;;;;;;8.73;3.47;;;11.80;99.90;;;;;;5056639;28;20066;-55
2022/09/26 10:55:13;;;;;;;7.30;3.72;;;11.80;99.90;;;;;;5048433;28;20044;-56
2022/09/26 10:57:44;;;;;;;6.20;3.85;;;11.80;99.90;;;;;;5031951;28;20032;-55
2022/09/26 11:00:37;;;;;;;8.25;3.85;;;11.80;99.90;;;;;;5030656;28;20363;-56
2022/09/26 11:03:09;;;;;;;8.73;4.13;;;11.80;99.90;;;;;;5049707;28;20437;-56
2022/09/26 11:05:58;;;;;;;9.65;4.47;;;11.80;99.90;;;;;;5048510;28;20017;-56
2022/09/26 11:08:32;;;;;;;9.80;4.47;;;11.90;99.90;;;;;;5050543;28;20477;-55
2022/09/26 11:11:10;;;;;;;5.20;3.67;;;11.80;99.90;;;;;;5031887;28;20520;-54
2022/09/26 11:14:02;;;;;;;10.13;4.45;;;11.90;99.90;;;;;;5049227;28;20017;-55
2022/09/26 11:16:28;;;;;;;6.93;4.38;;;11.90;99.90;;;;;;5049411;28;20094;-55
2022/09/26 11:19:00;;;;;;;7.35;4.25;;;11.90;99.90;;;;;;5050829;28;20048;-56
2022/09/26 11:21:41;;;;;;;9.70;4.15;;;11.90;99.90;;;;;;5040332;28;20044;-55
2022/09/26 11:24:36;;;;;;;6.55;3.80;;;11.90;99.90;;;;;;5044813;28;20117;-56
2022/09/26 11:27:18;;;;;;;10.10;4.22;;;11.80;99.90;;;;;;5042417;28;20030;-56
2022/09/26 11:29:55;;;;;;;8.60;4.25;;;11.80;99.90;;;;;;5050708;28;20017;-56
2022/09/26 11:32:32;;;;;;;6.50;3.70;;;11.80;99.90;;;;;;5037097;28;20025;-56
2022/09/26 11:35:02;;;;;;;5.70;3.70;;;11.80;99.90;;;;;;5051044;28;20039;-55
2022/09/26 11:37:35;;;;;;;8.85;4.57;;;11.80;99.90;;;;;;5048848;28;20025;-56
2022/09/26 11:40:18;;;;;;;7.18;4.15;;;11.80;99.90;;;;;;5046213;28;20014;-56
2022/09/26 11:43:07;;;;;;;7.15;4.05;;;11.90;99.90;;;;;;5043376;28;20032;-54
2022/09/26 11:45:41;;;;;;;7.27;3.90;;;11.80;99.90;;;;;;5054051;28;20033;-56
2022/09/26 11:48:19;;;;;;;6.05;3.58;;;11.80;99.90;;;;;;5053729;28;20044;-56
2022/09/26 11:51:18;;;;;;;6.18;3.65;;;11.90;99.90;;;;;;5051084;28;20025;-56
2022/09/26 11:54:11;;;;;;;6.13;3.83;;;11.90;99.90;;;;;;5051117;28;20469;-56
2022/09/26 11:56:49;;;;;;;8.07;3.55;;;11.90;99.90;;;;;;5052289;28;20029;-55
2022/09/26 11:59:30;;;;;;;5.82;3.67;;;11.90;99.90;;;;;;5052635;28;20021;-55
2022/09/26 12:02:22;;;;;;;5.05;3.33;;;12.00;99.90;;;;;;5052606;28;20017;-56
2022/09/26 12:05:02;;;;;;;4.20;3.08;;;12.00;99.90;;;;;;5053459;28;20033;-54
2022/09/26 12:07:30;;;;;;;6.85;3.13;;;12.00;99.90;;;;;;5051781;28;20028;-54
2022/09/26 12:10:33;;;;;;;6.93;3.40;;;12.00;99.90;;;;;;5053281;28;20031;-54
2022/09/26 12:13:33;;;;;;;7.60;3.25;;;12.00;99.90;;;;;;5052353;28;20526;-56
2022/09/26 12:16:05;;;;;;;;;;;12.00;99.90;;;;;;5052987;28;20029;-56
2022/09/26 12:18:42;;;;;;;5.07;2.80;;;12.00;99.90;;;;;;5051902;28;19911;-56
2022/09/26 12:21:29;;;;;;;4.22;2.72;;;12.00;99.90;;;;;;5066329;28;20104;-55
2022/09/26 12:24:06;;;;;;;4.60;2.80;;;12.10;99.90;;;;;;5052610;28;20071;-55
2022/09/26 12:26:48;;;;;;;5.72;2.97;;;12.10;99.90;;;;;;5049110;28;20036;-56
2022/09/26 12:29:28;;;;;;;4.03;2.13;;;12.20;99.90;;;;;;5037248;28;20018;-56
2022/09/26 12:32:37;;;;;;;4.60;2.05;;;12.20;99.90;;;;;;5051545;28;20370;-56
2022/09/26 12:35:34;;;;;;;7.47;2.67;;;12.20;99.90;;;;;;5032727;28;20485;-55
2022/09/26 12:38:15;;;;;;;2.83;2.13;;;12.20;99.90;;;;;;5059087;28;20037;-57
2022/09/26 12:41:21;;;;;;;3.33;2.05;;;12.20;99.90;;;;;;5052708;28;20390;-56
2022/09/26 12:43:53;;;;;;;4.28;2.13;;;12.20;99.90;;;;;;5053861;28;20009;-55
2022/09/26 12:46:36;;;;;;;5.28;2.50;;;12.10;99.90;;;;;;5052191;28;20060;-56
2022/09/26 12:49:28;;;;;;;3.22;1.88;;;12.10;99.90;;;;;;5048193;28;20028;-55
2022/09/26 12:52:07;;;;;;;4.00;2.40;;;12.10;99.90;;;;;;5048311;28;20025;-56
2022/09/26 12:54:39;;;;;;;4.22;2.35;;;12.10;99.90;;;;;;5038112;28;20028;-57
2022/09/26 12:57:37;;;;;;;4.45;2.30;;;12.10;99.90;;;;;;5045958;28;20049;-55
2022/09/26 13:00:21;;;;;;;4.15;2.50;;;12.10;99.90;;;;;;5050722;28;20100;-56
2022/09/26 13:03:15;;;;;;;5.82;2.30;;;12.00;99.90;;;;;;5045615;28;20115;-55
2022/09/26 13:06:11;;;;;;;3.83;2.22;;;12.00;99.90;;;;;;5043834;28;20097;-55
2022/09/26 13:09:14;;;;;;;4.25;2.50;;;12.00;99.90;;;;;;5049518;28;20074;-56
2022/09/26 13:11:52;;;;;;;3.88;2.60;;;12.00;99.90;;;;;;5039454;28;20067;-55
2022/09/26 13:14:26;;;;;;;3.75;2.25;;;12.00;99.90;;;;;;5042488;28;20704;-56
2022/09/26 13:17:12;;;;;;;3.90;2.03;;;12.00;99.90;;;;;;5033963;28;20021;-55
2022/09/26 13:20:02;;;;;;;3.72;2.38;;;12.10;99.90;;;;;;5048892;28;20067;-56
2022/09/26 13:22:39;;;;;;;3.70;2.25;;;12.10;99.90;;;;;;5041726;28;20032;-56
2022/09/26 13:25:35;;;;;;;3.53;2.03;;;12.10;99.90;;;;;;5033936;28;20115;-55
2022/09/26 13:28:15;;;;;;;4.10;1.98;;;12.00;99.90;;;;;;5038712;28;20028;-56
2022/09/26 13:30:58;;;;;;;1.90;1.73;;;12.10;99.90;;;;;;5039880;28;20478;-55
2022/09/26 13:33:38;;;;;;;2.65;1.90;;;12.10;99.90;;;;;;5045154;28;20025;-56